sensor_id;sensor_type;location;lat;lon;timestamp;P1;durP1;ratioP1;P2;durP2;ratioP2
64011;SDS011;50211;52.768;12.124;2022-09-20T00:00:41;1.65;;;0.73;;
64011;SDS011;50211;52.768;12.124;2022-09-20T00:03:08;2.45;;;0.65;;
64011;SDS011;50211;52.768;12.124;2022-09-20T00:05:36;0.77;;;0.60;;
64011;SDS011;50211;52.768;12.124;2022-09-20T00:08:03;2.13;;;0.75;;
64011;SDS011;50211;52.768;12.124;2022-09-20T00:10:33;2.58;;;0.70;;
64011;SDS011;50211;52.768;12.124;2022-09-20T00:13:03;3.47;;;0.85;;
64011;SDS011;50211;52.768;12.124;2022-09-20T00:15:29;2.13;;;0.73;;
64011;SDS011;50211;52.768;12.124;2022-09-20T00:17:55;1.25;;;0.80;;
64011;SDS011;50211;52.768;12.124;2022-09-20T00:20:21;1.77;;;0.98;;
64011;SDS011;50211;52.768;12.124;2022-09-20T00:22:47;1.52;;;0.80;;
64011;SDS011;50211;52.768;12.124;2022-09-20T00:25:14;1.77;;;0.80;;
64011;SDS011;50211;52.768;12.124;2022-09-20T00:27:40;3.13;;;0.87;;
64011;SDS011;50211;52.768;12.124;2022-09-20T00:30:06;3.30;;;0.98;;
64011;SDS011;50211;52.768;12.124;2022-09-20T00:32:32;2.85;;;0.65;;
64011;SDS011;50211;52.768;12.124;2022-09-20T00:34:57;3.00;;;0.80;;
64011;SDS011;50211;52.768;12.124;2022-09-20T00:37:33;2.08;;;0.90;;
64011;SDS011;50211;52.768;12.124;2022-09-20T00:39:59;0.70;;;0.70;;
64011;SDS011;50211;52.768;12.124;2022-09-20T00:42:26;4.78;;;0.82;;
64011;SDS011;50211;52.768;12.124;2022-09-20T00:45:04;1.25;;;1.00;;
64011;SDS011;50211;52.768;12.124;2022-09-20T00:47:34;7.88;;;1.23;;
64011;SDS011;50211;52.768;12.124;2022-09-20T00:50:13;1.23;;;0.70;;
64011;SDS011;50211;52.768;12.124;2022-09-20T00:52:57;0.98;;;0.90;;
64011;SDS011;50211;52.768;12.124;2022-09-20T00:55:28;4.53;;;1.10;;
64011;SDS011;50211;52.768;12.124;2022-09-20T00:57:54;1.75;;;0.80;;
64011;SDS011;50211;52.768;12.124;2022-09-20T01:00:20;1.38;;;0.80;;
64011;SDS011;50211;52.768;12.124;2022-09-20T01:02:50;1.85;;;1.02;;
64011;SDS011;50211;52.768;12.124;2022-09-20T01:05:20;3.77;;;0.90;;
64011;SDS011;50211;52.768;12.124;2022-09-20T01:07:47;1.58;;;0.88;;
64011;SDS011;50211;52.768;12.124;2022-09-20T01:10:16;1.73;;;1.00;;
64011;SDS011;50211;52.768;12.124;2022-09-20T01:12:42;2.30;;;0.93;;
64011;SDS011;50211;52.768;12.124;2022-09-20T01:15:10;2.88;;;1.13;;
64011;SDS011;50211;52.768;12.124;2022-09-20T01:17:37;1.37;;;0.90;;
64011;SDS011;50211;52.768;12.124;2022-09-20T01:20:08;2.22;;;1.30;;
64011;SDS011;50211;52.768;12.124;2022-09-20T01:22:42;1.00;;;0.90;;
64011;SDS011;50211;52.768;12.124;2022-09-20T01:28:16;3.80;;;0.83;;
64011;SDS011;50211;52.768;12.124;2022-09-20T01:31:00;2.20;;;0.70;;
64011;SDS011;50211;52.768;12.124;2022-09-20T01:36:08;0.70;;;0.70;;
64011;SDS011;50211;52.768;12.124;2022-09-20T01:38:43;1.30;;;0.68;;
64011;SDS011;50211;52.768;12.124;2022-09-20T01:41:20;2.90;;;1.10;;
64011;SDS011;50211;52.768;12.124;2022-09-20T01:44:04;1.63;;;1.15;;
64011;SDS011;50211;52.768;12.124;2022-09-20T01:46:37;1.25;;;0.85;;
64011;SDS011;50211;52.768;12.124;2022-09-20T01:54:58;1.15;;;0.70;;
64011;SDS011;50211;52.768;12.124;2022-09-20T02:00:32;4.18;;;0.80;;
64011;SDS011;50211;52.768;12.124;2022-09-20T02:03:23;4.35;;;1.08;;
64011;SDS011;50211;52.768;12.124;2022-09-20T02:06:07;0.82;;;0.70;;
64011;SDS011;50211;52.768;12.124;2022-09-20T02:11:18;2.58;;;0.95;;
64011;SDS011;50211;52.768;12.124;2022-09-20T02:13:57;3.95;;;0.70;;
64011;SDS011;50211;52.768;12.124;2022-09-20T02:16:49;2.00;;;1.30;;
64011;SDS011;50211;52.768;12.124;2022-09-20T02:19:27;0.82;;;0.82;;
64011;SDS011;50211;52.768;12.124;2022-09-20T02:22:38;2.42;;;0.82;;
64011;SDS011;50211;52.768;12.124;2022-09-20T02:28:15;3.17;;;0.90;;
64011;SDS011;50211;52.768;12.124;2022-09-20T02:31:06;1.60;;;0.90;;
64011;SDS011;50211;52.768;12.124;2022-09-20T02:39:16;1.83;;;0.85;;
64011;SDS011;50211;52.768;12.124;2022-09-20T02:41:58;1.87;;;1.00;;
64011;SDS011;50211;52.768;12.124;2022-09-20T02:44:28;3.80;;;1.05;;
64011;SDS011;50211;52.768;12.124;2022-09-20T02:47:18;1.60;;;1.08;;
64011;SDS011;50211;52.768;12.124;2022-09-20T02:50:19;1.47;;;1.10;;
64011;SDS011;50211;52.768;12.124;2022-09-20T02:53:02;3.50;;;1.20;;
64011;SDS011;50211;52.768;12.124;2022-09-20T02:55:56;1.03;;;0.90;;
64011;SDS011;50211;52.768;12.124;2022-09-20T03:01:24;1.83;;;1.20;;
64011;SDS011;50211;52.768;12.124;2022-09-20T03:07:28;3.47;;;1.25;;
64011;SDS011;50211;52.768;12.124;2022-09-20T03:12:59;4.07;;;1.07;;
64011;SDS011;50211;52.768;12.124;2022-09-20T03:15:54;4.40;;;1.30;;
64011;SDS011;50211;52.768;12.124;2022-09-20T03:18:40;1.57;;;1.17;;
64011;SDS011;50211;52.768;12.124;2022-09-20T03:21:27;4.97;;;1.50;;
64011;SDS011;50211;52.768;12.124;2022-09-20T03:27:08;1.30;;;1.00;;
64011;SDS011;50211;52.768;12.124;2022-09-20T03:33:13;3.73;;;1.20;;
64011;SDS011;50211;52.768;12.124;2022-09-20T03:42:06;3.93;;;1.47;;
64011;SDS011;50211;52.768;12.124;2022-09-20T03:50:24;4.53;;;1.05;;
64011;SDS011;50211;52.768;12.124;2022-09-20T03:53:14;3.83;;;1.33;;
64011;SDS011;50211;52.768;12.124;2022-09-20T03:56:12;8.17;;;2.03;;
64011;SDS011;50211;52.768;12.124;2022-09-20T04:02:03;3.90;;;1.20;;
64011;SDS011;50211;52.768;12.124;2022-09-20T04:04:57;7.37;;;1.50;;
64011;SDS011;50211;52.768;12.124;2022-09-20T04:07:40;4.70;;;1.10;;
64011;SDS011;50211;52.768;12.124;2022-09-20T04:18:34;5.17;;;1.10;;
64011;SDS011;50211;52.768;12.124;2022-09-20T04:21:25;3.03;;;1.27;;
64011;SDS011;50211;52.768;12.124;2022-09-20T04:25:14;4.77;;;1.70;;
64011;SDS011;50211;52.768;12.124;2022-09-20T04:27:45;4.87;;;1.27;;
64011;SDS011;50211;52.768;12.124;2022-09-20T04:30:17;4.60;;;1.23;;
64011;SDS011;50211;52.768;12.124;2022-09-20T04:35:28;10.23;;;1.73;;
64011;SDS011;50211;52.768;12.124;2022-09-20T04:38:25;4.67;;;1.70;;
64011;SDS011;50211;52.768;12.124;2022-09-20T04:40:58;2.47;;;1.50;;
64011;SDS011;50211;52.768;12.124;2022-09-20T04:46:21;6.07;;;1.77;;
64011;SDS011;50211;52.768;12.124;2022-09-20T04:55:09;9.00;;;2.50;;
64011;SDS011;50211;52.768;12.124;2022-09-20T05:14:21;11.17;;;3.33;;
64011;SDS011;50211;52.768;12.124;2022-09-20T05:17:20;13.27;;;4.20;;
64011;SDS011;50211;52.768;12.124;2022-09-20T05:20:05;17.03;;;4.20;;
64011;SDS011;50211;52.768;12.124;2022-09-20T05:28:25;14.87;;;5.10;;
64011;SDS011;50211;52.768;12.124;2022-09-20T05:41:53;13.60;;;5.07;;
64011;SDS011;50211;52.768;12.124;2022-09-20T05:47:13;9.77;;;5.20;;
64011;SDS011;50211;52.768;12.124;2022-09-20T05:52:38;22.67;;;5.80;;
64011;SDS011;50211;52.768;12.124;2022-09-20T05:55:23;14.17;;;6.03;;
64011;SDS011;50211;52.768;12.124;2022-09-20T06:00:56;17.90;;;6.47;;
64011;SDS011;50211;52.768;12.124;2022-09-20T06:08:56;19.37;;;10.10;;
64011;SDS011;50211;52.768;12.124;2022-09-20T06:11:39;18.10;;;7.57;;
64011;SDS011;50211;52.768;12.124;2022-09-20T06:22:31;25.10;;;6.40;;
64011;SDS011;50211;52.768;12.124;2022-09-20T06:25:03;18.27;;;7.50;;
64011;SDS011;50211;52.768;12.124;2022-09-20T06:28:17;17.97;;;6.90;;
64011;SDS011;50211;52.768;12.124;2022-09-20T06:30:46;22.57;;;7.13;;
64011;SDS011;50211;52.768;12.124;2022-09-20T06:33:19;21.63;;;7.10;;
64011;SDS011;50211;52.768;12.124;2022-09-20T06:35:48;15.03;;;6.47;;
64011;SDS011;50211;52.768;12.124;2022-09-20T06:41:40;16.67;;;6.47;;
64011;SDS011;50211;52.768;12.124;2022-09-20T06:44:06;23.17;;;8.17;;
64011;SDS011;50211;52.768;12.124;2022-09-20T06:46:34;14.30;;;6.70;;
64011;SDS011;50211;52.768;12.124;2022-09-20T06:49:00;15.77;;;8.37;;
64011;SDS011;50211;52.768;12.124;2022-09-20T06:51:27;19.93;;;11.20;;
64011;SDS011;50211;52.768;12.124;2022-09-20T06:54:00;18.57;;;8.73;;
64011;SDS011;50211;52.768;12.124;2022-09-20T06:56:30;17.07;;;6.87;;
64011;SDS011;50211;52.768;12.124;2022-09-20T06:59:00;16.27;;;7.70;;
64011;SDS011;50211;52.768;12.124;2022-09-20T07:01:34;19.98;;;8.75;;
64011;SDS011;50211;52.768;12.124;2022-09-20T07:04:00;18.83;;;8.43;;
64011;SDS011;50211;52.768;12.124;2022-09-20T07:06:28;17.57;;;9.63;;
64011;SDS011;50211;52.768;12.124;2022-09-20T07:08:53;22.27;;;9.57;;
64011;SDS011;50211;52.768;12.124;2022-09-20T07:11:19;17.77;;;7.30;;
64011;SDS011;50211;52.768;12.124;2022-09-20T07:13:49;15.20;;;6.83;;
64011;SDS011;50211;52.768;12.124;2022-09-20T07:16:15;26.77;;;7.87;;
64011;SDS011;50211;52.768;12.124;2022-09-20T07:18:41;18.08;;;6.97;;
64011;SDS011;50211;52.768;12.124;2022-09-20T07:21:10;17.47;;;6.53;;
64011;SDS011;50211;52.768;12.124;2022-09-20T07:23:37;17.57;;;7.47;;
64011;SDS011;50211;52.768;12.124;2022-09-20T07:26:03;14.97;;;6.83;;
64011;SDS011;50211;52.768;12.124;2022-09-20T07:28:29;24.83;;;7.40;;
64011;SDS011;50211;52.768;12.124;2022-09-20T07:30:56;22.52;;;7.25;;
64011;SDS011;50211;52.768;12.124;2022-09-20T07:33:22;16.17;;;7.00;;
64011;SDS011;50211;52.768;12.124;2022-09-20T07:35:50;23.42;;;7.35;;
64011;SDS011;50211;52.768;12.124;2022-09-20T07:38:18;15.20;;;7.23;;
64011;SDS011;50211;52.768;12.124;2022-09-20T07:40:44;20.20;;;7.83;;
64011;SDS011;50211;52.768;12.124;2022-09-20T07:43:10;14.88;;;7.32;;
64011;SDS011;50211;52.768;12.124;2022-09-20T07:45:36;18.10;;;6.97;;
64011;SDS011;50211;52.768;12.124;2022-09-20T07:48:06;14.95;;;6.80;;
64011;SDS011;50211;52.768;12.124;2022-09-20T07:50:32;13.85;;;7.28;;
64011;SDS011;50211;52.768;12.124;2022-09-20T07:52:58;18.83;;;7.57;;
64011;SDS011;50211;52.768;12.124;2022-09-20T07:55:26;12.75;;;6.95;;
64011;SDS011;50211;52.768;12.124;2022-09-20T07:57:54;12.15;;;6.78;;
64011;SDS011;50211;52.768;12.124;2022-09-20T08:00:20;16.05;;;6.15;;
64011;SDS011;50211;52.768;12.124;2022-09-20T08:02:45;16.47;;;7.47;;
64011;SDS011;50211;52.768;12.124;2022-09-20T08:05:11;17.33;;;6.25;;
64011;SDS011;50211;52.768;12.124;2022-09-20T08:07:38;16.52;;;7.00;;
64011;SDS011;50211;52.768;12.124;2022-09-20T08:10:04;15.03;;;6.17;;
64011;SDS011;50211;52.768;12.124;2022-09-20T08:12:30;12.15;;;7.32;;
64011;SDS011;50211;52.768;12.124;2022-09-20T08:14:58;11.95;;;6.32;;
64011;SDS011;50211;52.768;12.124;2022-09-20T08:17:25;15.60;;;7.20;;
64011;SDS011;50211;52.768;12.124;2022-09-20T08:19:50;16.67;;;6.68;;
64011;SDS011;50211;52.768;12.124;2022-09-20T08:22:17;9.93;;;5.95;;
64011;SDS011;50211;52.768;12.124;2022-09-20T08:24:43;14.13;;;6.15;;
64011;SDS011;50211;52.768;12.124;2022-09-20T08:27:11;13.13;;;5.88;;
64011;SDS011;50211;52.768;12.124;2022-09-20T08:29:37;13.93;;;6.88;;
64011;SDS011;50211;52.768;12.124;2022-09-20T08:32:02;12.18;;;6.22;;
64011;SDS011;50211;52.768;12.124;2022-09-20T08:34:28;12.43;;;6.10;;
64011;SDS011;50211;52.768;12.124;2022-09-20T08:36:56;11.27;;;5.68;;
64011;SDS011;50211;52.768;12.124;2022-09-20T08:39:24;16.98;;;5.78;;
64011;SDS011;50211;52.768;12.124;2022-09-20T08:41:54;10.25;;;5.95;;
64011;SDS011;50211;52.768;12.124;2022-09-20T08:44:29;11.82;;;5.45;;
64011;SDS011;50211;52.768;12.124;2022-09-20T08:49:31;11.88;;;5.55;;
64011;SDS011;50211;52.768;12.124;2022-09-20T08:51:57;11.05;;;6.25;;
64011;SDS011;50211;52.768;12.124;2022-09-20T08:54:25;12.57;;;5.88;;
64011;SDS011;50211;52.768;12.124;2022-09-20T08:56:51;12.32;;;5.60;;
64011;SDS011;50211;52.768;12.124;2022-09-20T08:59:18;9.27;;;5.30;;
64011;SDS011;50211;52.768;12.124;2022-09-20T09:01:46;13.90;;;5.50;;
64011;SDS011;50211;52.768;12.124;2022-09-20T09:04:16;11.20;;;5.70;;
64011;SDS011;50211;52.768;12.124;2022-09-20T09:06:47;10.40;;;6.13;;
64011;SDS011;50211;52.768;12.124;2022-09-20T09:09:24;9.00;;;5.75;;
64011;SDS011;50211;52.768;12.124;2022-09-20T09:11:52;18.73;;;6.15;;
64011;SDS011;50211;52.768;12.124;2022-09-20T09:14:29;10.90;;;6.15;;
64011;SDS011;50211;52.768;12.124;2022-09-20T09:17:13;14.25;;;4.90;;
64011;SDS011;50211;52.768;12.124;2022-09-20T09:27:59;8.55;;;5.50;;
64011;SDS011;50211;52.768;12.124;2022-09-20T09:30:39;12.70;;;6.30;;
64011;SDS011;50211;52.768;12.124;2022-09-20T09:33:25;11.52;;;5.13;;
64011;SDS011;50211;52.768;12.124;2022-09-20T09:35:59;10.30;;;4.80;;
64011;SDS011;50211;52.768;12.124;2022-09-20T09:38:35;8.07;;;5.18;;
64011;SDS011;50211;52.768;12.124;2022-09-20T09:41:03;7.97;;;4.75;;
64011;SDS011;50211;52.768;12.124;2022-09-20T09:44:03;9.50;;;5.32;;
64011;SDS011;50211;52.768;12.124;2022-09-20T09:46:34;11.68;;;5.20;;
64011;SDS011;50211;52.768;12.124;2022-09-20T09:49:06;9.90;;;5.18;;
64011;SDS011;50211;52.768;12.124;2022-09-20T09:51:58;9.57;;;5.18;;
64011;SDS011;50211;52.768;12.124;2022-09-20T09:54:34;12.73;;;5.78;;
64011;SDS011;50211;52.768;12.124;2022-09-20T10:05:17;10.35;;;4.97;;
64011;SDS011;50211;52.768;12.124;2022-09-20T10:07:49;9.07;;;5.45;;
64011;SDS011;50211;52.768;12.124;2022-09-20T10:13:54;9.73;;;4.68;;
64011;SDS011;50211;52.768;12.124;2022-09-20T10:16:59;7.63;;;5.35;;
64011;SDS011;50211;52.768;12.124;2022-09-20T10:22:29;7.97;;;4.47;;
64011;SDS011;50211;52.768;12.124;2022-09-20T10:28:17;7.97;;;3.92;;
64011;SDS011;50211;52.768;12.124;2022-09-20T10:36:43;4.75;;;3.40;;
64011;SDS011;50211;52.768;12.124;2022-09-20T10:39:30;6.80;;;3.95;;
64011;SDS011;50211;52.768;12.124;2022-09-20T10:47:30;3.85;;;2.95;;
64011;SDS011;50211;52.768;12.124;2022-09-20T10:53:09;4.03;;;2.67;;
64011;SDS011;50211;52.768;12.124;2022-09-20T10:59:11;3.90;;;2.75;;
64011;SDS011;50211;52.768;12.124;2022-09-20T11:07:25;4.95;;;2.38;;
64011;SDS011;50211;52.768;12.124;2022-09-20T11:10:23;4.57;;;2.33;;
64011;SDS011;50211;52.768;12.124;2022-09-20T11:12:56;4.72;;;2.40;;
64011;SDS011;50211;52.768;12.124;2022-09-20T11:15:35;3.15;;;2.20;;
64011;SDS011;50211;52.768;12.124;2022-09-20T11:18:18;2.72;;;1.52;;
64011;SDS011;50211;52.768;12.124;2022-09-20T11:21:10;1.92;;;1.55;;
64011;SDS011;50211;52.768;12.124;2022-09-20T11:23:51;2.20;;;1.33;;
64011;SDS011;50211;52.768;12.124;2022-09-20T11:26:30;2.38;;;1.27;;
64011;SDS011;50211;52.768;12.124;2022-09-20T11:29:29;4.40;;;1.30;;
64011;SDS011;50211;52.768;12.124;2022-09-20T11:32:01;3.42;;;1.30;;
64011;SDS011;50211;52.768;12.124;2022-09-20T11:34:45;1.10;;;0.80;;
64011;SDS011;50211;52.768;12.124;2022-09-20T11:37:16;1.77;;;1.10;;
64011;SDS011;50211;52.768;12.124;2022-09-20T11:39:55;1.58;;;1.17;;
64011;SDS011;50211;52.768;12.124;2022-09-20T11:42:48;1.15;;;0.80;;
64011;SDS011;50211;52.768;12.124;2022-09-20T11:45:16;6.00;;;0.80;;
64011;SDS011;50211;52.768;12.124;2022-09-20T11:47:53;2.03;;;0.90;;
64011;SDS011;50211;52.768;12.124;2022-09-20T11:50:50;0.77;;;0.77;;
64011;SDS011;50211;52.768;12.124;2022-09-20T11:56:49;2.08;;;1.00;;
64011;SDS011;50211;52.768;12.124;2022-09-20T11:59:36;2.05;;;0.68;;
64011;SDS011;50211;52.768;12.124;2022-09-20T12:02:12;0.95;;;0.80;;
64011;SDS011;50211;52.768;12.124;2022-09-20T12:04:44;3.60;;;0.68;;
64011;SDS011;50211;52.768;12.124;2022-09-20T12:07:17;1.50;;;0.80;;
64011;SDS011;50211;52.768;12.124;2022-09-20T12:10:03;1.75;;;0.75;;
64011;SDS011;50211;52.768;12.124;2022-09-20T12:12:44;1.17;;;0.85;;
64011;SDS011;50211;52.768;12.124;2022-09-20T12:20:55;0.90;;;0.73;;
64011;SDS011;50211;52.768;12.124;2022-09-20T12:28:35;3.65;;;0.60;;
64011;SDS011;50211;52.768;12.124;2022-09-20T12:31:45;0.93;;;0.55;;
64011;SDS011;50211;52.768;12.124;2022-09-20T12:36:26;0.70;;;0.70;;
64011;SDS011;50211;52.768;12.124;2022-09-20T12:38:56;0.60;;;0.60;;
64011;SDS011;50211;52.768;12.124;2022-09-20T12:44:31;0.40;;;0.40;;
64011;SDS011;50211;52.768;12.124;2022-09-20T12:47:22;0.43;;;0.40;;
64011;SDS011;50211;52.768;12.124;2022-09-20T12:49:55;2.15;;;0.60;;
64011;SDS011;50211;52.768;12.124;2022-09-20T13:00:39;2.60;;;0.50;;
64011;SDS011;50211;52.768;12.124;2022-09-20T13:03:35;0.65;;;0.50;;
64011;SDS011;50211;52.768;12.124;2022-09-20T13:11:07;1.20;;;0.40;;
64011;SDS011;50211;52.768;12.124;2022-09-20T13:14:37;0.90;;;0.50;;
64011;SDS011;50211;52.768;12.124;2022-09-20T13:16:40;0.20;;;0.20;;
64011;SDS011;50211;52.768;12.124;2022-09-20T13:19:31;0.38;;;0.30;;
64011;SDS011;50211;52.768;12.124;2022-09-20T13:22:05;0.93;;;0.40;;
64011;SDS011;50211;52.768;12.124;2022-09-20T13:24:39;2.40;;;0.40;;
64011;SDS011;50211;52.768;12.124;2022-09-20T13:27:08;2.55;;;0.40;;
64011;SDS011;50211;52.768;12.124;2022-09-20T13:29:40;0.60;;;0.22;;
64011;SDS011;50211;52.768;12.124;2022-09-20T13:37:34;2.33;;;0.60;;
64011;SDS011;50211;52.768;12.124;2022-09-20T13:40:01;0.28;;;0.22;;
64011;SDS011;50211;52.768;12.124;2022-09-20T13:42:28;0.75;;;0.40;;
64011;SDS011;50211;52.768;12.124;2022-09-20T13:44:55;3.28;;;0.77;;
64011;SDS011;50211;52.768;12.124;2022-09-20T13:47:26;0.85;;;0.52;;
64011;SDS011;50211;52.768;12.124;2022-09-20T13:50:15;0.43;;;0.43;;
64011;SDS011;50211;52.768;12.124;2022-09-20T13:52:55;1.95;;;0.60;;
64011;SDS011;50211;52.768;12.124;2022-09-20T13:58:14;0.82;;;0.50;;
64011;SDS011;50211;52.768;12.124;2022-09-20T14:00:50;0.25;;;0.25;;
64011;SDS011;50211;52.768;12.124;2022-09-20T14:03:21;1.80;;;0.50;;
64011;SDS011;50211;52.768;12.124;2022-09-20T14:05:48;1.17;;;0.50;;
64011;SDS011;50211;52.768;12.124;2022-09-20T14:08:21;0.68;;;0.30;;
64011;SDS011;50211;52.768;12.124;2022-09-20T14:11:06;1.17;;;0.38;;
64011;SDS011;50211;52.768;12.124;2022-09-20T14:13:38;0.22;;;0.20;;
64011;SDS011;50211;52.768;12.124;2022-09-20T14:16:06;2.38;;;0.35;;
64011;SDS011;50211;52.768;12.124;2022-09-20T14:18:33;1.10;;;0.57;;
64011;SDS011;50211;52.768;12.124;2022-09-20T14:21:02;2.15;;;0.30;;
64011;SDS011;50211;52.768;12.124;2022-09-20T14:23:32;0.93;;;0.30;;
64011;SDS011;50211;52.768;12.124;2022-09-20T14:28:41;0.30;;;0.30;;
64011;SDS011;50211;52.768;12.124;2022-09-20T14:31:07;1.58;;;0.50;;
64011;SDS011;50211;52.768;12.124;2022-09-20T14:33:42;2.05;;;0.40;;
64011;SDS011;50211;52.768;12.124;2022-09-20T14:36:15;2.42;;;1.50;;
64011;SDS011;50211;52.768;12.124;2022-09-20T14:38:44;1.42;;;0.50;;
64011;SDS011;50211;52.768;12.124;2022-09-20T14:41:20;2.08;;;0.40;;
64011;SDS011;50211;52.768;12.124;2022-09-20T14:43:55;1.95;;;0.32;;
64011;SDS011;50211;52.768;12.124;2022-09-20T14:46:27;3.05;;;0.63;;
64011;SDS011;50211;52.768;12.124;2022-09-20T14:51:45;2.05;;;0.60;;
64011;SDS011;50211;52.768;12.124;2022-09-20T14:54:17;0.55;;;0.20;;
64011;SDS011;50211;52.768;12.124;2022-09-20T14:56:53;0.80;;;0.68;;
64011;SDS011;50211;52.768;12.124;2022-09-20T14:59:25;0.75;;;0.50;;
64011;SDS011;50211;52.768;12.124;2022-09-20T15:01:53;2.60;;;1.30;;
64011;SDS011;50211;52.768;12.124;2022-09-20T15:04:25;10.55;;;1.98;;
64011;SDS011;50211;52.768;12.124;2022-09-20T15:06:52;1.48;;;0.43;;
64011;SDS011;50211;52.768;12.124;2022-09-20T15:09:21;1.05;;;0.50;;
64011;SDS011;50211;52.768;12.124;2022-09-20T15:11:59;2.38;;;0.40;;
64011;SDS011;50211;52.768;12.124;2022-09-20T15:14:29;0.57;;;0.40;;
64011;SDS011;50211;52.768;12.124;2022-09-20T15:16:56;0.75;;;0.30;;
64011;SDS011;50211;52.768;12.124;2022-09-20T15:19:25;3.30;;;0.50;;
64011;SDS011;50211;52.768;12.124;2022-09-20T15:21:50;0.45;;;0.30;;
64011;SDS011;50211;52.768;12.124;2022-09-20T15:24:18;3.80;;;0.38;;
64011;SDS011;50211;52.768;12.124;2022-09-20T15:26:44;0.98;;;0.40;;
64011;SDS011;50211;52.768;12.124;2022-09-20T15:29:15;1.13;;;0.40;;
64011;SDS011;50211;52.768;12.124;2022-09-20T15:31:41;1.23;;;0.22;;
64011;SDS011;50211;52.768;12.124;2022-09-20T15:34:08;0.52;;;0.30;;
64011;SDS011;50211;52.768;12.124;2022-09-20T15:36:36;0.98;;;0.38;;
64011;SDS011;50211;52.768;12.124;2022-09-20T15:39:04;1.20;;;0.40;;
64011;SDS011;50211;52.768;12.124;2022-09-20T15:41:29;0.68;;;0.30;;
64011;SDS011;50211;52.768;12.124;2022-09-20T15:43:57;2.17;;;0.63;;
64011;SDS011;50211;52.768;12.124;2022-09-20T15:46:24;3.15;;;0.52;;
64011;SDS011;50211;52.768;12.124;2022-09-20T15:48:53;3.25;;;0.50;;
64011;SDS011;50211;52.768;12.124;2022-09-20T15:51:19;0.30;;;0.30;;
64011;SDS011;50211;52.768;12.124;2022-09-20T15:53:46;3.97;;;1.05;;
64011;SDS011;50211;52.768;12.124;2022-09-20T15:56:20;2.40;;;1.80;;
64011;SDS011;50211;52.768;12.124;2022-09-20T15:58:48;1.48;;;1.27;;
64011;SDS011;50211;52.768;12.124;2022-09-20T16:01:25;1.23;;;1.08;;
64011;SDS011;50211;52.768;12.124;2022-09-20T16:03:57;2.88;;;1.55;;
64011;SDS011;50211;52.768;12.124;2022-09-20T16:06:26;4.90;;;1.40;;
64011;SDS011;50211;52.768;12.124;2022-09-20T16:08:51;1.00;;;0.57;;
64011;SDS011;50211;52.768;12.124;2022-09-20T16:11:19;1.25;;;0.60;;
64011;SDS011;50211;52.768;12.124;2022-09-20T16:13:46;1.00;;;0.73;;
64011;SDS011;50211;52.768;12.124;2022-09-20T16:16:16;1.92;;;0.60;;
64011;SDS011;50211;52.768;12.124;2022-09-20T16:18:42;1.42;;;0.98;;
64011;SDS011;50211;52.768;12.124;2022-09-20T16:21:26;5.13;;;2.33;;
64011;SDS011;50211;52.768;12.124;2022-09-20T16:23:53;1.75;;;0.60;;
64011;SDS011;50211;52.768;12.124;2022-09-20T16:26:20;1.25;;;0.52;;
64011;SDS011;50211;52.768;12.124;2022-09-20T16:28:47;1.20;;;0.50;;
64011;SDS011;50211;52.768;12.124;2022-09-20T16:34:05;2.47;;;1.77;;
64011;SDS011;50211;52.768;12.124;2022-09-20T16:36:50;2.55;;;0.98;;
64011;SDS011;50211;52.768;12.124;2022-09-20T16:39:17;1.92;;;0.70;;
64011;SDS011;50211;52.768;12.124;2022-09-20T16:41:45;2.88;;;0.90;;
64011;SDS011;50211;52.768;12.124;2022-09-20T16:44:12;3.55;;;0.70;;
64011;SDS011;50211;52.768;12.124;2022-09-20T16:46:38;2.47;;;1.00;;
64011;SDS011;50211;52.768;12.124;2022-09-20T16:49:07;2.65;;;0.95;;
64011;SDS011;50211;52.768;12.124;2022-09-20T16:51:35;7.70;;;2.58;;
64011;SDS011;50211;52.768;12.124;2022-09-20T16:54:08;3.15;;;1.88;;
64011;SDS011;50211;52.768;12.124;2022-09-20T16:56:42;4.80;;;1.60;;
64011;SDS011;50211;52.768;12.124;2022-09-20T16:59:10;4.40;;;1.55;;
64011;SDS011;50211;52.768;12.124;2022-09-20T17:01:37;4.65;;;1.92;;
64011;SDS011;50211;52.768;12.124;2022-09-20T17:04:04;2.03;;;1.00;;
64011;SDS011;50211;52.768;12.124;2022-09-20T17:06:33;2.75;;;1.08;;
64011;SDS011;50211;52.768;12.124;2022-09-20T17:09:00;1.55;;;0.80;;
64011;SDS011;50211;52.768;12.124;2022-09-20T17:11:27;3.58;;;1.15;;
64011;SDS011;50211;52.768;12.124;2022-09-20T17:13:54;2.28;;;0.60;;
64011;SDS011;50211;52.768;12.124;2022-09-20T17:16:22;1.38;;;1.05;;
64011;SDS011;50211;52.768;12.124;2022-09-20T17:18:50;2.80;;;1.00;;
64011;SDS011;50211;52.768;12.124;2022-09-20T17:21:20;2.05;;;0.93;;
64011;SDS011;50211;52.768;12.124;2022-09-20T17:23:47;0.95;;;0.85;;
64011;SDS011;50211;52.768;12.124;2022-09-20T17:26:19;3.60;;;0.80;;
64011;SDS011;50211;52.768;12.124;2022-09-20T17:28:49;0.45;;;0.45;;
64011;SDS011;50211;52.768;12.124;2022-09-20T17:31:18;1.65;;;0.55;;
64011;SDS011;50211;52.768;12.124;2022-09-20T17:33:52;1.52;;;0.50;;
64011;SDS011;50211;52.768;12.124;2022-09-20T17:36:18;2.40;;;0.50;;
64011;SDS011;50211;52.768;12.124;2022-09-20T17:38:47;1.95;;;0.90;;
64011;SDS011;50211;52.768;12.124;2022-09-20T17:41:17;2.05;;;0.80;;
64011;SDS011;50211;52.768;12.124;2022-09-20T17:43:44;3.97;;;1.30;;
64011;SDS011;50211;52.768;12.124;2022-09-20T17:46:12;5.82;;;1.15;;
64011;SDS011;50211;52.768;12.124;2022-09-20T17:48:52;3.85;;;0.80;;
64011;SDS011;50211;52.768;12.124;2022-09-20T17:51:20;1.40;;;0.80;;
64011;SDS011;50211;52.768;12.124;2022-09-20T17:53:47;0.93;;;0.50;;
64011;SDS011;50211;52.768;12.124;2022-09-20T17:56:13;0.85;;;0.43;;
64011;SDS011;50211;52.768;12.124;2022-09-20T17:58:39;0.47;;;0.40;;
64011;SDS011;50211;52.768;12.124;2022-09-20T18:01:07;2.20;;;0.65;;
64011;SDS011;50211;52.768;12.124;2022-09-20T18:03:38;1.48;;;0.60;;
64011;SDS011;50211;52.768;12.124;2022-09-20T18:06:10;3.13;;;0.60;;
64011;SDS011;50211;52.768;12.124;2022-09-20T18:08:38;2.40;;;0.40;;
64011;SDS011;50211;52.768;12.124;2022-09-20T18:11:04;0.38;;;0.38;;
64011;SDS011;50211;52.768;12.124;2022-09-20T18:13:31;3.22;;;0.70;;
64011;SDS011;50211;52.768;12.124;2022-09-20T18:15:56;1.38;;;0.60;;
64011;SDS011;50211;52.768;12.124;2022-09-20T18:18:22;3.75;;;1.10;;
64011;SDS011;50211;52.768;12.124;2022-09-20T18:20:48;11.10;;;1.00;;
64011;SDS011;50211;52.768;12.124;2022-09-20T18:23:13;1.67;;;1.17;;
64011;SDS011;50211;52.768;12.124;2022-09-20T18:25:41;3.08;;;1.30;;
64011;SDS011;50211;52.768;12.124;2022-09-20T18:28:25;2.05;;;1.25;;
64011;SDS011;50211;52.768;12.124;2022-09-20T18:31:00;4.10;;;1.77;;
64011;SDS011;50211;52.768;12.124;2022-09-20T18:33:27;4.50;;;1.90;;
64011;SDS011;50211;52.768;12.124;2022-09-20T18:36:03;1.58;;;1.23;;
64011;SDS011;50211;52.768;12.124;2022-09-20T18:38:30;2.00;;;1.17;;
64011;SDS011;50211;52.768;12.124;2022-09-20T18:40:57;2.10;;;1.00;;
64011;SDS011;50211;52.768;12.124;2022-09-20T18:43:28;2.03;;;0.88;;
64011;SDS011;50211;52.768;12.124;2022-09-20T18:45:55;2.80;;;1.60;;
64011;SDS011;50211;52.768;12.124;2022-09-20T18:48:21;3.08;;;1.25;;
64011;SDS011;50211;52.768;12.124;2022-09-20T18:50:57;2.38;;;1.10;;
64011;SDS011;50211;52.768;12.124;2022-09-20T18:53:30;2.67;;;1.10;;
64011;SDS011;50211;52.768;12.124;2022-09-20T18:56:16;2.70;;;0.90;;
64011;SDS011;50211;52.768;12.124;2022-09-20T18:58:45;1.25;;;0.68;;
64011;SDS011;50211;52.768;12.124;2022-09-20T19:07:02;2.97;;;1.20;;
64011;SDS011;50211;52.768;12.124;2022-09-20T19:10:28;6.20;;;2.90;;